sensor_id;sensor_type;location;lat;lon;timestamp;P1;durP1;ratioP1;P2;durP2;ratioP2
43837;SDS011;65998;46.256;7.534;2024-02-04T06:47:56;7.90;;;1.30;;
43837;SDS011;65998;46.256;7.534;2024-02-04T06:50:22;6.80;;;1.20;;
43837;SDS011;65998;46.256;7.534;2024-02-04T06:52:48;5.53;;;2.67;;
43837;SDS011;65998;46.256;7.534;2024-02-04T06:55:14;2.30;;;0.77;;
43837;SDS011;65998;46.256;7.534;2024-02-04T06:57:39;5.22;;;2.17;;
43837;SDS011;65998;46.256;7.534;2024-02-04T07:00:06;5.80;;;1.30;;
43837;SDS011;65998;46.256;7.534;2024-02-04T07:02:32;9.50;;;4.53;;
43837;SDS011;65998;46.256;7.534;2024-02-04T07:04:58;4.43;;;1.40;;
43837;SDS011;65998;46.256;7.534;2024-02-04T07:07:23;2.05;;;0.60;;
43837;SDS011;65998;46.256;7.534;2024-02-04T07:09:49;2.17;;;0.50;;
43837;SDS011;65998;46.256;7.534;2024-02-04T07:12:15;3.00;;;1.30;;
43837;SDS011;65998;46.256;7.534;2024-02-04T07:14:41;4.95;;;1.35;;
43837;SDS011;65998;46.256;7.534;2024-02-04T07:17:06;2.80;;;0.83;;
43837;SDS011;65998;46.256;7.534;2024-02-04T07:19:33;3.40;;;0.88;;
43837;SDS011;65998;46.256;7.534;2024-02-04T07:21:58;4.50;;;2.37;;
43837;SDS011;65998;46.256;7.534;2024-02-04T07:24:24;4.38;;;1.92;;
43837;SDS011;65998;46.256;7.534;2024-02-04T07:26:50;3.05;;;1.65;;
43837;SDS011;65998;46.256;7.534;2024-02-04T07:29:16;3.93;;;1.40;;
43837;SDS011;65998;46.256;7.534;2024-02-04T07:31:42;3.80;;;1.85;;
43837;SDS011;65998;46.256;7.534;2024-02-04T07:34:08;2.25;;;0.80;;
43837;SDS011;65998;46.256;7.534;2024-02-04T07:36:33;4.97;;;2.50;;
43837;SDS011;65998;46.256;7.534;2024-02-04T07:38:59;3.75;;;1.85;;
43837;SDS011;65998;46.256;7.534;2024-02-04T07:41:25;6.47;;;2.07;;
43837;SDS011;65998;46.256;7.534;2024-02-04T07:43:51;4.15;;;1.40;;
43837;SDS011;65998;46.256;7.534;2024-02-04T07:46:17;6.15;;;1.60;;
43837;SDS011;65998;46.256;7.534;2024-02-04T07:48:43;3.13;;;0.93;;
43837;SDS011;65998;46.256;7.534;2024-02-04T07:51:09;8.98;;;2.45;;
43837;SDS011;65998;46.256;7.534;2024-02-04T07:53:35;4.82;;;1.38;;
43837;SDS011;65998;46.256;7.534;2024-02-04T07:56:00;4.00;;;1.08;;
43837;SDS011;65998;46.256;7.534;2024-02-04T07:58:26;5.35;;;2.20;;
43837;SDS011;65998;46.256;7.534;2024-02-04T08:00:52;3.07;;;1.20;;
43837;SDS011;65998;46.256;7.534;2024-02-04T08:03:18;6.07;;;2.08;;
43837;SDS011;65998;46.256;7.534;2024-02-04T08:05:44;4.17;;;1.03;;
43837;SDS011;65998;46.256;7.534;2024-02-04T08:08:09;3.33;;;1.00;;
43837;SDS011;65998;46.256;7.534;2024-02-04T08:10:35;33.73;;;12.33;;
43837;SDS011;65998;46.256;7.534;2024-02-04T08:13:01;31.15;;;14.15;;
43837;SDS011;65998;46.256;7.534;2024-02-04T08:15:27;16.50;;;8.07;;
43837;SDS011;65998;46.256;7.534;2024-02-04T08:17:52;12.30;;;5.47;;
43837;SDS011;65998;46.256;7.534;2024-02-04T08:20:18;12.02;;;5.30;;
43837;SDS011;65998;46.256;7.534;2024-02-04T08:22:44;6.95;;;2.95;;
43837;SDS011;65998;46.256;7.534;2024-02-04T08:25:10;8.23;;;3.80;;
43837;SDS011;65998;46.256;7.534;2024-02-04T08:27:36;14.43;;;6.10;;
43837;SDS011;65998;46.256;7.534;2024-02-04T08:30:02;17.67;;;8.20;;
43837;SDS011;65998;46.256;7.534;2024-02-04T08:32:28;10.15;;;3.90;;
43837;SDS011;65998;46.256;7.534;2024-02-04T08:34:53;12.85;;;3.20;;
43837;SDS011;65998;46.256;7.534;2024-02-04T08:37:19;5.27;;;2.07;;
43837;SDS011;65998;46.256;7.534;2024-02-04T08:39:45;24.13;;;12.32;;
43837;SDS011;65998;46.256;7.534;2024-02-04T08:42:11;6.87;;;2.97;;
43837;SDS011;65998;46.256;7.534;2024-02-04T08:44:37;8.52;;;4.05;;
43837;SDS011;65998;46.256;7.534;2024-02-04T08:47:02;5.97;;;1.73;;
43837;SDS011;65998;46.256;7.534;2024-02-04T08:49:29;2.13;;;0.50;;
43837;SDS011;65998;46.256;7.534;2024-02-04T08:51:55;2.58;;;0.70;;
43837;SDS011;65998;46.256;7.534;2024-02-04T08:54:21;3.05;;;0.70;;
43837;SDS011;65998;46.256;7.534;2024-02-04T08:56:47;1.20;;;0.20;;
43837;SDS011;65998;46.256;7.534;2024-02-04T08:59:13;2.03;;;0.43;;
43837;SDS011;65998;46.256;7.534;2024-02-04T09:01:38;2.28;;;0.85;;
43837;SDS011;65998;46.256;7.534;2024-02-04T09:04:04;4.57;;;2.23;;
43837;SDS011;65998;46.256;7.534;2024-02-04T09:06:30;6.47;;;2.25;;
43837;SDS011;65998;46.256;7.534;2024-02-04T09:08:56;5.00;;;0.90;;
43837;SDS011;65998;46.256;7.534;2024-02-04T09:11:22;2.83;;;0.90;;
43837;SDS011;65998;46.256;7.534;2024-02-04T09:13:48;5.07;;;1.08;;
43837;SDS011;65998;46.256;7.534;2024-02-04T09:16:13;3.87;;;1.00;;
43837;SDS011;65998;46.256;7.534;2024-02-04T09:18:39;8.77;;;1.33;;
43837;SDS011;65998;46.256;7.534;2024-02-04T09:21:05;5.07;;;0.73;;
43837;SDS011;65998;46.256;7.534;2024-02-04T09:23:32;4.00;;;0.90;;
43837;SDS011;65998;46.256;7.534;2024-02-04T09:25:57;2.25;;;0.60;;
43837;SDS011;65998;46.256;7.534;2024-02-04T09:28:23;5.72;;;0.80;;
43837;SDS011;65998;46.256;7.534;2024-02-04T09:30:49;4.80;;;0.60;;
43837;SDS011;65998;46.256;7.534;2024-02-04T09:33:15;3.67;;;1.00;;
43837;SDS011;65998;46.256;7.534;2024-02-04T09:35:40;5.93;;;1.10;;
43837;SDS011;65998;46.256;7.534;2024-02-04T09:38:06;4.97;;;0.80;;
43837;SDS011;65998;46.256;7.534;2024-02-04T09:40:32;6.80;;;1.00;;
43837;SDS011;65998;46.256;7.534;2024-02-04T09:42:58;6.05;;;0.60;;
43837;SDS011;65998;46.256;7.534;2024-02-04T09:45:24;4.93;;;0.85;;
43837;SDS011;65998;46.256;7.534;2024-02-04T09:47:51;3.70;;;0.47;;
43837;SDS011;65998;46.256;7.534;2024-02-04T09:50:22;4.17;;;1.53;;
43837;SDS011;65998;46.256;7.534;2024-02-04T09:52:51;2.35;;;0.73;;
43837;SDS011;65998;46.256;7.534;2024-02-04T09:55:23;4.60;;;0.75;;
43837;SDS011;65998;46.256;7.534;2024-02-04T09:57:50;4.05;;;0.65;;
43837;SDS011;65998;46.256;7.534;2024-02-04T10:00:18;3.10;;;0.50;;
43837;SDS011;65998;46.256;7.534;2024-02-04T10:02:45;6.05;;;1.40;;
43837;SDS011;65998;46.256;7.534;2024-02-04T10:05:12;4.15;;;0.52;;
43837;SDS011;65998;46.256;7.534;2024-02-04T10:07:38;2.67;;;0.57;;
43837;SDS011;65998;46.256;7.534;2024-02-04T10:10:05;2.40;;;0.70;;
43837;SDS011;65998;46.256;7.534;2024-02-04T10:12:32;2.38;;;0.50;;
43837;SDS011;65998;46.256;7.534;2024-02-04T10:14:58;2.80;;;0.65;;
43837;SDS011;65998;46.256;7.534;2024-02-04T10:17:25;4.43;;;0.70;;
43837;SDS011;65998;46.256;7.534;2024-02-04T10:19:50;3.17;;;0.50;;
43837;SDS011;65998;46.256;7.534;2024-02-04T10:22:16;2.65;;;0.60;;
43837;SDS011;65998;46.256;7.534;2024-02-04T10:24:42;3.93;;;0.70;;
43837;SDS011;65998;46.256;7.534;2024-02-04T10:27:12;3.35;;;0.70;;
43837;SDS011;65998;46.256;7.534;2024-02-04T10:29:37;3.50;;;0.63;;
43837;SDS011;65998;46.256;7.534;2024-02-04T10:32:04;4.57;;;0.70;;
43837;SDS011;65998;46.256;7.534;2024-02-04T10:34:29;6.75;;;0.90;;
43837;SDS011;65998;46.256;7.534;2024-02-04T10:36:56;4.37;;;0.90;;
43837;SDS011;65998;46.256;7.534;2024-02-04T10:39:22;5.28;;;1.15;;
43837;SDS011;65998;46.256;7.534;2024-02-04T10:41:51;4.53;;;1.02;;
43837;SDS011;65998;46.256;7.534;2024-02-04T10:44:20;5.95;;;1.27;;
43837;SDS011;65998;46.256;7.534;2024-02-04T10:46:48;5.20;;;0.80;;
43837;SDS011;65998;46.256;7.534;2024-02-04T10:49:15;3.92;;;0.63;;
43837;SDS011;65998;46.256;7.534;2024-02-04T10:51:41;4.60;;;0.70;;
43837;SDS011;65998;46.256;7.534;2024-02-04T10:54:07;2.95;;;1.15;;
43837;SDS011;65998;46.256;7.534;2024-02-04T10:59:14;4.77;;;1.60;;
43837;SDS011;65998;46.256;7.534;2024-02-04T11:01:41;3.08;;;1.30;;
43837;SDS011;65998;46.256;7.534;2024-02-04T11:04:08;6.13;;;2.67;;
43837;SDS011;65998;46.256;7.534;2024-02-04T11:06:35;6.78;;;1.50;;
43837;SDS011;65998;46.256;7.534;2024-02-04T11:09:02;3.47;;;1.30;;
43837;SDS011;65998;46.256;7.534;2024-02-04T11:11:30;4.20;;;1.25;;
43837;SDS011;65998;46.256;7.534;2024-02-04T11:13:56;3.65;;;1.08;;
43837;SDS011;65998;46.256;7.534;2024-02-04T11:27:20;2.38;;;0.88;;
43837;SDS011;65998;46.256;7.534;2024-02-04T11:29:46;2.33;;;0.93;;
43837;SDS011;65998;46.256;7.534;2024-02-04T11:32:12;2.63;;;0.80;;
43837;SDS011;65998;46.256;7.534;2024-02-04T11:35:12;2.23;;;1.00;;
43837;SDS011;65998;46.256;7.534;2024-02-04T11:37:39;2.63;;;0.73;;
43837;SDS011;65998;46.256;7.534;2024-02-04T11:40:05;3.63;;;0.85;;
43837;SDS011;65998;46.256;7.534;2024-02-04T11:42:31;1.93;;;0.67;;
43837;SDS011;65998;46.256;7.534;2024-02-04T11:45:07;2.35;;;0.90;;
43837;SDS011;65998;46.256;7.534;2024-02-04T11:47:33;2.72;;;0.73;;
43837;SDS011;65998;46.256;7.534;2024-02-04T11:49:59;2.47;;;0.85;;
43837;SDS011;65998;46.256;7.534;2024-02-04T11:52:28;2.37;;;0.63;;
43837;SDS011;65998;46.256;7.534;2024-02-04T11:54:54;2.20;;;0.70;;
43837;SDS011;65998;46.256;7.534;2024-02-04T11:57:21;2.92;;;0.98;;
43837;SDS011;65998;46.256;7.534;2024-02-04T11:59:48;2.15;;;0.60;;
43837;SDS011;65998;46.256;7.534;2024-02-04T12:02:17;2.38;;;0.73;;
43837;SDS011;65998;46.256;7.534;2024-02-04T12:04:46;3.03;;;0.90;;
43837;SDS011;65998;46.256;7.534;2024-02-04T12:07:13;3.42;;;0.80;;
43837;SDS011;65998;46.256;7.534;2024-02-04T12:09:42;2.63;;;0.85;;
43837;SDS011;65998;46.256;7.534;2024-02-04T12:12:09;2.78;;;0.90;;
43837;SDS011;65998;46.256;7.534;2024-02-04T12:14:36;2.83;;;0.90;;
43837;SDS011;65998;46.256;7.534;2024-02-04T12:17:10;3.13;;;1.30;;
43837;SDS011;65998;46.256;7.534;2024-02-04T12:19:36;4.70;;;1.65;;
43837;SDS011;65998;46.256;7.534;2024-02-04T12:22:03;6.75;;;2.30;;
43837;SDS011;65998;46.256;7.534;2024-02-04T12:24:30;4.47;;;1.20;;
43837;SDS011;65998;46.256;7.534;2024-02-04T12:26:56;2.67;;;0.80;;
43837;SDS011;65998;46.256;7.534;2024-02-04T12:29:21;2.83;;;0.90;;
43837;SDS011;65998;46.256;7.534;2024-02-04T12:31:47;2.67;;;0.73;;
43837;SDS011;65998;46.256;7.534;2024-02-04T12:34:13;2.63;;;0.80;;
43837;SDS011;65998;46.256;7.534;2024-02-04T12:36:39;2.63;;;0.82;;
43837;SDS011;65998;46.256;7.534;2024-02-04T12:39:05;1.92;;;0.70;;
43837;SDS011;65998;46.256;7.534;2024-02-04T12:41:31;4.33;;;0.70;;
43837;SDS011;65998;46.256;7.534;2024-02-04T12:43:57;3.30;;;0.70;;
43837;SDS011;65998;46.256;7.534;2024-02-04T12:46:24;1.90;;;0.70;;
43837;SDS011;65998;46.256;7.534;2024-02-04T12:48:54;2.00;;;0.60;;
43837;SDS011;65998;46.256;7.534;2024-02-04T12:54:01;2.75;;;0.68;;
43837;SDS011;65998;46.256;7.534;2024-02-04T12:56:44;2.42;;;0.90;;
43837;SDS011;65998;46.256;7.534;2024-02-04T12:59:30;3.35;;;0.88;;
43837;SDS011;65998;46.256;7.534;2024-02-04T13:01:58;2.87;;;0.63;;
43837;SDS011;65998;46.256;7.534;2024-02-04T13:04:26;5.22;;;0.93;;
43837;SDS011;65998;46.256;7.534;2024-02-04T13:06:59;3.42;;;1.00;;
43837;SDS011;65998;46.256;7.534;2024-02-04T13:09:24;3.40;;;0.90;;
43837;SDS011;65998;46.256;7.534;2024-02-04T13:11:50;4.37;;;0.80;;
43837;SDS011;65998;46.256;7.534;2024-02-04T13:14:16;7.30;;;0.82;;
43837;SDS011;65998;46.256;7.534;2024-02-04T13:16:42;3.28;;;0.80;;
43837;SDS011;65998;46.256;7.534;2024-02-04T13:19:08;1.93;;;0.93;;
43837;SDS011;65998;46.256;7.534;2024-02-04T13:21:34;4.25;;;1.00;;
43837;SDS011;65998;46.256;7.534;2024-02-04T13:23:59;4.87;;;0.80;;
43837;SDS011;65998;46.256;7.534;2024-02-04T13:26:25;3.65;;;0.98;;
43837;SDS011;65998;46.256;7.534;2024-02-04T13:28:51;3.13;;;0.80;;
43837;SDS011;65998;46.256;7.534;2024-02-04T13:31:17;3.20;;;0.70;;
43837;SDS011;65998;46.256;7.534;2024-02-04T13:33:43;2.38;;;0.70;;
43837;SDS011;65998;46.256;7.534;2024-02-04T13:36:08;2.80;;;0.80;;
43837;SDS011;65998;46.256;7.534;2024-02-04T13:38:35;2.10;;;0.60;;
43837;SDS011;65998;46.256;7.534;2024-02-04T13:41:02;3.45;;;0.70;;
43837;SDS011;65998;46.256;7.534;2024-02-04T13:43:28;2.42;;;0.65;;
43837;SDS011;65998;46.256;7.534;2024-02-04T13:45:54;2.27;;;0.70;;
43837;SDS011;65998;46.256;7.534;2024-02-04T13:48:20;2.63;;;0.93;;
43837;SDS011;65998;46.256;7.534;2024-02-04T13:50:46;3.43;;;0.90;;
43837;SDS011;65998;46.256;7.534;2024-02-04T13:53:12;4.30;;;0.70;;
43837;SDS011;65998;46.256;7.534;2024-02-04T13:55:38;2.92;;;1.20;;
43837;SDS011;65998;46.256;7.534;2024-02-04T13:58:04;3.53;;;0.80;;
43837;SDS011;65998;46.256;7.534;2024-02-04T14:00:29;3.40;;;0.77;;
43837;SDS011;65998;46.256;7.534;2024-02-04T14:02:55;2.85;;;0.73;;
43837;SDS011;65998;46.256;7.534;2024-02-04T14:05:21;5.13;;;0.60;;
43837;SDS011;65998;46.256;7.534;2024-02-04T14:07:47;7.05;;;0.93;;
43837;SDS011;65998;46.256;7.534;2024-02-04T14:10:12;2.03;;;0.60;;
43837;SDS011;65998;46.256;7.534;2024-02-04T14:12:38;3.05;;;0.50;;
43837;SDS011;65998;46.256;7.534;2024-02-04T14:15:04;3.05;;;0.63;;
43837;SDS011;65998;46.256;7.534;2024-02-04T14:17:31;4.17;;;0.60;;
43837;SDS011;65998;46.256;7.534;2024-02-04T14:19:56;2.60;;;0.90;;
43837;SDS011;65998;46.256;7.534;2024-02-04T14:22:22;3.05;;;0.63;;
43837;SDS011;65998;46.256;7.534;2024-02-04T14:24:48;5.43;;;0.70;;
43837;SDS011;65998;46.256;7.534;2024-02-04T14:27:15;4.43;;;1.00;;
43837;SDS011;65998;46.256;7.534;2024-02-04T14:29:40;5.23;;;1.40;;
43837;SDS011;65998;46.256;7.534;2024-02-04T14:32:06;3.00;;;0.90;;
43837;SDS011;65998;46.256;7.534;2024-02-04T14:34:33;4.15;;;0.82;;
43837;SDS011;65998;46.256;7.534;2024-02-04T14:37:00;4.78;;;0.85;;
43837;SDS011;65998;46.256;7.534;2024-02-04T14:39:25;3.30;;;0.87;;
43837;SDS011;65998;46.256;7.534;2024-02-04T14:41:51;2.17;;;0.88;;
43837;SDS011;65998;46.256;7.534;2024-02-04T14:44:17;2.33;;;0.60;;
43837;SDS011;65998;46.256;7.534;2024-02-04T14:46:43;4.18;;;0.55;;
43837;SDS011;65998;46.256;7.534;2024-02-04T14:49:09;3.90;;;0.60;;
43837;SDS011;65998;46.256;7.534;2024-02-04T14:51:37;2.53;;;0.40;;
43837;SDS011;65998;46.256;7.534;2024-02-04T14:54:04;3.67;;;0.75;;
43837;SDS011;65998;46.256;7.534;2024-02-04T14:56:30;4.28;;;0.70;;
43837;SDS011;65998;46.256;7.534;2024-02-04T14:58:55;2.83;;;0.70;;
43837;SDS011;65998;46.256;7.534;2024-02-04T15:01:21;2.57;;;0.60;;
43837;SDS011;65998;46.256;7.534;2024-02-04T15:03:47;4.35;;;0.80;;
43837;SDS011;65998;46.256;7.534;2024-02-04T15:06:13;6.35;;;1.10;;
43837;SDS011;65998;46.256;7.534;2024-02-04T15:08:39;2.27;;;0.40;;
43837;SDS011;65998;46.256;7.534;2024-02-04T15:11:05;4.95;;;0.65;;
43837;SDS011;65998;46.256;7.534;2024-02-04T15:13:30;2.20;;;0.47;;
43837;SDS011;65998;46.256;7.534;2024-02-04T15:15:57;2.50;;;0.57;;
43837;SDS011;65998;46.256;7.534;2024-02-04T15:18:23;3.22;;;0.60;;
43837;SDS011;65998;46.256;7.534;2024-02-04T15:20:49;3.65;;;0.70;;
43837;SDS011;65998;46.256;7.534;2024-02-04T15:23:15;2.83;;;0.60;;
43837;SDS011;65998;46.256;7.534;2024-02-04T15:25:41;2.40;;;0.70;;
43837;SDS011;65998;46.256;7.534;2024-02-04T15:28:07;3.20;;;0.70;;
43837;SDS011;65998;46.256;7.534;2024-02-04T15:30:37;3.83;;;0.77;;
43837;SDS011;65998;46.256;7.534;2024-02-04T15:33:03;14.13;;;5.63;;
43837;SDS011;65998;46.256;7.534;2024-02-04T15:35:29;7.20;;;3.20;;
43837;SDS011;65998;46.256;7.534;2024-02-04T15:37:55;3.28;;;0.93;;
43837;SDS011;65998;46.256;7.534;2024-02-04T15:40:21;1.90;;;0.40;;
43837;SDS011;65998;46.256;7.534;2024-02-04T15:42:47;4.50;;;1.30;;
43837;SDS011;65998;46.256;7.534;2024-02-04T15:45:13;4.43;;;2.03;;
43837;SDS011;65998;46.256;7.534;2024-02-04T15:47:40;4.22;;;2.13;;
43837;SDS011;65998;46.256;7.534;2024-02-04T15:50:14;6.15;;;2.67;;
43837;SDS011;65998;46.256;7.534;2024-02-04T15:52:40;4.93;;;2.13;;
43837;SDS011;65998;46.256;7.534;2024-02-04T15:55:06;13.57;;;7.97;;
43837;SDS011;65998;46.256;7.534;2024-02-04T15:57:33;20.92;;;10.05;;
43837;SDS011;65998;46.256;7.534;2024-02-04T16:03:51;36.20;;;15.90;;
43837;SDS011;65998;46.256;7.534;2024-02-04T16:06:17;26.35;;;12.50;;
43837;SDS011;65998;46.256;7.534;2024-02-04T16:08:43;11.25;;;4.82;;
43837;SDS011;65998;46.256;7.534;2024-02-04T16:11:13;6.65;;;2.35;;
43837;SDS011;65998;46.256;7.534;2024-02-04T16:13:41;7.20;;;2.57;;
43837;SDS011;65998;46.256;7.534;2024-02-04T16:16:09;9.95;;;5.80;;
43837;SDS011;65998;46.256;7.534;2024-02-04T16:18:39;8.45;;;4.45;;
43837;SDS011;65998;46.256;7.534;2024-02-04T16:21:05;5.65;;;2.67;;
43837;SDS011;65998;46.256;7.534;2024-02-04T16:23:31;4.50;;;1.80;;
43837;SDS011;65998;46.256;7.534;2024-02-04T16:25:57;3.65;;;1.60;;
43837;SDS011;65998;46.256;7.534;2024-02-04T16:28:23;4.80;;;2.50;;
43837;SDS011;65998;46.256;7.534;2024-02-04T16:30:49;5.03;;;1.95;;
43837;SDS011;65998;46.256;7.534;2024-02-04T16:33:15;7.55;;;2.63;;
43837;SDS011;65998;46.256;7.534;2024-02-04T16:35:41;5.18;;;1.70;;
43837;SDS011;65998;46.256;7.534;2024-02-04T16:38:06;4.77;;;1.30;;
43837;SDS011;65998;46.256;7.534;2024-02-04T16:40:32;2.53;;;0.80;;
43837;SDS011;65998;46.256;7.534;2024-02-04T16:42:58;3.35;;;0.70;;
43837;SDS011;65998;46.256;7.534;2024-02-04T16:45:24;3.88;;;1.13;;
43837;SDS011;65998;46.256;7.534;2024-02-04T16:47:50;3.13;;;1.00;;
43837;SDS011;65998;46.256;7.534;2024-02-04T16:50:16;2.40;;;0.70;;
43837;SDS011;65998;46.256;7.534;2024-02-04T16:52:42;3.40;;;1.10;;
43837;SDS011;65998;46.256;7.534;2024-02-04T16:55:11;3.08;;;1.00;;
43837;SDS011;65998;46.256;7.534;2024-02-04T16:57:36;4.53;;;1.80;;
43837;SDS011;65998;46.256;7.534;2024-02-04T17:00:03;4.72;;;1.70;;
43837;SDS011;65998;46.256;7.534;2024-02-04T17:02:30;4.65;;;1.52;;
43837;SDS011;65998;46.256;7.534;2024-02-04T17:04:56;4.03;;;1.70;;
43837;SDS011;65998;46.256;7.534;2024-02-04T17:07:22;5.00;;;1.63;;
43837;SDS011;65998;46.256;7.534;2024-02-04T17:09:48;14.30;;;4.20;;
43837;SDS011;65998;46.256;7.534;2024-02-04T17:12:14;11.00;;;3.80;;
43837;SDS011;65998;46.256;7.534;2024-02-04T17:14:41;10.38;;;4.50;;
43837;SDS011;65998;46.256;7.534;2024-02-04T17:17:11;13.68;;;7.20;;
43837;SDS011;65998;46.256;7.534;2024-02-04T17:19:44;5.68;;;2.80;;
43837;SDS011;65998;46.256;7.534;2024-02-04T17:22:15;8.15;;;3.10;;
43837;SDS011;65998;46.256;7.534;2024-02-04T17:24:46;8.57;;;3.90;;
43837;SDS011;65998;46.256;7.534;2024-02-04T17:27:17;5.18;;;2.70;;
43837;SDS011;65998;46.256;7.534;2024-02-04T17:29:44;5.40;;;2.10;;
43837;SDS011;65998;46.256;7.534;2024-02-04T17:32:11;11.48;;;7.05;;
43837;SDS011;65998;46.256;7.534;2024-02-04T17:34:38;9.70;;;5.57;;
43837;SDS011;65998;46.256;7.534;2024-02-04T17:37:08;6.00;;;3.38;;
43837;SDS011;65998;46.256;7.534;2024-02-04T17:39:35;21.23;;;8.20;;
43837;SDS011;65998;46.256;7.534;2024-02-04T17:42:02;11.48;;;6.70;;
43837;SDS011;65998;46.256;7.534;2024-02-04T17:44:29;9.60;;;5.07;;
43837;SDS011;65998;46.256;7.534;2024-02-04T17:46:54;14.43;;;7.20;;
43837;SDS011;65998;46.256;7.534;2024-02-04T17:49:20;8.57;;;4.40;;
43837;SDS011;65998;46.256;7.534;2024-02-04T17:51:46;6.50;;;3.80;;
43837;SDS011;65998;46.256;7.534;2024-02-04T17:54:12;8.07;;;3.25;;
43837;SDS011;65998;46.256;7.534;2024-02-04T17:56:38;4.97;;;2.47;;
43837;SDS011;65998;46.256;7.534;2024-02-04T17:59:04;8.45;;;6.28;;
43837;SDS011;65998;46.256;7.534;2024-02-04T18:01:30;13.63;;;6.10;;
43837;SDS011;65998;46.256;7.534;2024-02-04T18:03:56;11.50;;;4.60;;
43837;SDS011;65998;46.256;7.534;2024-02-04T18:06:21;7.80;;;2.63;;
43837;SDS011;65998;46.256;7.534;2024-02-04T18:08:47;15.93;;;8.70;;
43837;SDS011;65998;46.256;7.534;2024-02-04T18:11:16;19.87;;;11.60;;
43837;SDS011;65998;46.256;7.534;2024-02-04T18:13:46;11.73;;;5.47;;
43837;SDS011;65998;46.256;7.534;2024-02-04T18:16:12;15.50;;;9.18;;
43837;SDS011;65998;46.256;7.534;2024-02-04T18:18:40;27.60;;;11.67;;
43837;SDS011;65998;46.256;7.534;2024-02-04T18:21:17;27.85;;;10.70;;
43837;SDS011;65998;46.256;7.534;2024-02-04T18:23:44;13.30;;;5.13;;
43837;SDS011;65998;46.256;7.534;2024-02-04T18:26:19;13.57;;;6.68;;
43837;SDS011;65998;46.256;7.534;2024-02-04T18:28:46;11.85;;;5.90;;
43837;SDS011;65998;46.256;7.534;2024-02-04T18:31:12;12.47;;;6.67;;
43837;SDS011;65998;46.256;7.534;2024-02-04T18:33:39;11.90;;;5.18;;
43837;SDS011;65998;46.256;7.534;2024-02-04T18:36:04;16.33;;;5.93;;
43837;SDS011;65998;46.256;7.534;2024-02-04T18:38:30;10.40;;;5.63;;
43837;SDS011;65998;46.256;7.534;2024-02-04T18:40:56;4.57;;;0.98;;
43837;SDS011;65998;46.256;7.534;2024-02-04T18:43:22;2.00;;;0.57;;
43837;SDS011;65998;46.256;7.534;2024-02-04T18:45:48;2.08;;;0.60;;
43837;SDS011;65998;46.256;7.534;2024-02-04T18:48:14;2.83;;;0.60;;
43837;SDS011;65998;46.256;7.534;2024-02-04T18:50:39;8.10;;;2.67;;
43837;SDS011;65998;46.256;7.534;2024-02-04T18:53:05;8.77;;;3.15;;
43837;SDS011;65998;46.256;7.534;2024-02-04T18:55:31;6.47;;;2.47;;
43837;SDS011;65998;46.256;7.534;2024-02-04T18:57:57;6.78;;;1.10;;
43837;SDS011;65998;46.256;7.534;2024-02-04T19:00:23;6.95;;;0.70;;
43837;SDS011;65998;46.256;7.534;2024-02-04T19:02:49;5.03;;;0.73;;
43837;SDS011;65998;46.256;7.534;2024-02-04T19:05:15;3.95;;;1.20;;
43837;SDS011;65998;46.256;7.534;2024-02-04T19:07:41;2.78;;;0.90;;
43837;SDS011;65998;46.256;7.534;2024-02-04T19:10:07;3.03;;;0.80;;
43837;SDS011;65998;46.256;7.534;2024-02-04T19:12:33;2.00;;;0.50;;
43837;SDS011;65998;46.256;7.534;2024-02-04T19:14:58;1.80;;;0.40;;
43837;SDS011;65998;46.256;7.534;2024-02-04T19:17:24;2.28;;;0.40;;
43837;SDS011;65998;46.256;7.534;2024-02-04T19:19:50;3.77;;;1.30;;
43837;SDS011;65998;46.256;7.534;2024-02-04T19:22:16;3.88;;;1.60;;
43837;SDS011;65998;46.256;7.534;2024-02-04T19:24:42;3.42;;;0.80;;
43837;SDS011;65998;46.256;7.534;2024-02-04T19:27:08;2.13;;;0.60;;
43837;SDS011;65998;46.256;7.534;2024-02-04T19:29:33;3.47;;;0.40;;
43837;SDS011;65998;46.256;7.534;2024-02-04T19:31:59;2.97;;;0.80;;
43837;SDS011;65998;46.256;7.534;2024-02-04T19:34:25;8.05;;;3.58;;
43837;SDS011;65998;46.256;7.534;2024-02-04T19:36:51;14.93;;;5.88;;
43837;SDS011;65998;46.256;7.534;2024-02-04T19:39:17;7.90;;;3.00;;
43837;SDS011;65998;46.256;7.534;2024-02-04T19:41:43;5.63;;;1.83;;
43837;SDS011;65998;46.256;7.534;2024-02-04T19:44:08;22.05;;;9.63;;
43837;SDS011;65998;46.256;7.534;2024-02-04T19:46:34;11.03;;;4.70;;
43837;SDS011;65998;46.256;7.534;2024-02-04T19:49:00;7.25;;;2.58;;
43837;SDS011;65998;46.256;7.534;2024-02-04T19:51:26;7.35;;;2.25;;
43837;SDS011;65998;46.256;7.534;2024-02-04T19:53:52;2.50;;;0.60;;
43837;SDS011;65998;46.256;7.534;2024-02-04T19:56:18;4.50;;;0.68;;
43837;SDS011;65998;46.256;7.534;2024-02-04T19:58:43;2.90;;;0.60;;
43837;SDS011;65998;46.256;7.534;2024-02-04T20:01:09;3.70;;;0.90;;
43837;SDS011;65998;46.256;7.534;2024-02-04T20:03:35;6.15;;;1.45;;
43837;SDS011;65998;46.256;7.534;2024-02-04T20:06:01;3.00;;;0.80;;
43837;SDS011;65998;46.256;7.534;2024-02-04T20:08:27;3.22;;;0.98;;
43837;SDS011;65998;46.256;7.534;2024-02-04T20:10:53;3.45;;;1.20;;
43837;SDS011;65998;46.256;7.534;2024-02-04T20:13:18;4.10;;;1.35;;
43837;SDS011;65998;46.256;7.534;2024-02-04T20:15:44;3.67;;;1.50;;
43837;SDS011;65998;46.256;7.534;2024-02-04T20:18:11;3.43;;;1.27;;
43837;SDS011;65998;46.256;7.534;2024-02-04T20:20:37;3.80;;;1.20;;
43837;SDS011;65998;46.256;7.534;2024-02-04T20:23:03;6.87;;;1.77;;
43837;SDS011;65998;46.256;7.534;2024-02-04T20:25:29;6.63;;;2.00;;
43837;SDS011;65998;46.256;7.534;2024-02-04T20:27:55;7.22;;;2.28;;
43837;SDS011;65998;46.256;7.534;2024-02-04T20:30:22;11.10;;;3.53;;
43837;SDS011;65998;46.256;7.534;2024-02-04T20:32:47;12.80;;;3.50;;
43837;SDS011;65998;46.256;7.534;2024-02-04T20:35:13;7.50;;;2.35;;
43837;SDS011;65998;46.256;7.534;2024-02-04T20:37:39;6.40;;;1.60;;
43837;SDS011;65998;46.256;7.534;2024-02-04T20:40:05;12.85;;;4.20;;
43837;SDS011;65998;46.256;7.534;2024-02-04T20:42:31;20.50;;;6.32;;
43837;SDS011;65998;46.256;7.534;2024-02-04T20:44:57;9.57;;;2.95;;
43837;SDS011;65998;46.256;7.534;2024-02-04T20:47:23;7.63;;;2.27;;
43837;SDS011;65998;46.256;7.534;2024-02-04T20:49:50;7.00;;;2.20;;
43837;SDS011;65998;46.256;7.534;2024-02-04T20:52:15;5.18;;;1.38;;
43837;SDS011;65998;46.256;7.534;2024-02-04T20:54:41;3.45;;;0.85;;
43837;SDS011;65998;46.256;7.534;2024-02-04T20:57:07;2.67;;;0.43;;
43837;SDS011;65998;46.256;7.534;2024-02-04T20:59:33;2.15;;;0.50;;
43837;SDS011;65998;46.256;7.534;2024-02-04T21:01:58;1.40;;;0.30;;
43837;SDS011;65998;46.256;7.534;2024-02-04T21:04:24;1.80;;;0.30;;
43837;SDS011;65998;46.256;7.534;2024-02-04T21:06:51;1.37;;;0.40;;
43837;SDS011;65998;46.256;7.534;2024-02-04T21:09:17;1.60;;;0.50;;
43837;SDS011;65998;46.256;7.534;2024-02-04T21:11:43;1.75;;;0.30;;
43837;SDS011;65998;46.256;7.534;2024-02-04T21:14:09;2.87;;;0.43;;
43837;SDS011;65998;46.256;7.534;2024-02-04T21:16:34;1.75;;;0.30;;
43837;SDS011;65998;46.256;7.534;2024-02-04T21:19:00;2.00;;;0.40;;
43837;SDS011;65998;46.256;7.534;2024-02-04T21:21:26;1.97;;;0.40;;
43837;SDS011;65998;46.256;7.534;2024-02-04T21:23:53;3.42;;;1.10;;
43837;SDS011;65998;46.256;7.534;2024-02-04T21:26:19;4.27;;;1.00;;
43837;SDS011;65998;46.256;7.534;2024-02-04T21:28:44;5.95;;;1.92;;
43837;SDS011;65998;46.256;7.534;2024-02-04T21:31:10;6.90;;;2.20;;
43837;SDS011;65998;46.256;7.534;2024-02-04T21:33:36;2.90;;;0.60;;
43837;SDS011;65998;46.256;7.534;2024-02-04T21:36:07;4.78;;;1.80;;
43837;SDS011;65998;46.256;7.534;2024-02-04T21:38:34;8.77;;;3.25;;
43837;SDS011;65998;46.256;7.534;2024-02-04T21:41:00;4.03;;;1.70;;
43837;SDS011;65998;46.256;7.534;2024-02-04T21:43:26;3.97;;;1.40;;
43837;SDS011;65998;46.256;7.534;2024-02-04T21:45:52;1.80;;;0.50;;
43837;SDS011;65998;46.256;7.534;2024-02-04T21:48:18;1.90;;;0.40;;